createdAt,value
2022-12-23T00:00:41.331Z,96731.53
2022-12-23T00:03:09.614Z,96730.69
2022-12-23T00:05:38.472Z,96721.78
2022-12-23T00:08:08.476Z,96716.41
2022-12-23T00:10:38.954Z,96719.09
2022-12-23T00:13:24.159Z,96718.25
2022-12-23T00:15:52.445Z,96712.88
2022-12-23T00:18:20.531Z,96718.25
2022-12-23T00:20:48.687Z,96733.47
2022-12-23T00:23:18.157Z,96733.47
2022-12-23T00:25:46.458Z,96707.63
2022-12-23T00:28:16.275Z,96706.75
2022-12-23T00:30:47.971Z,96716.53
2022-12-23T00:33:16.181Z,96722.75
2022-12-23T00:35:44.257Z,96712.00
2022-12-23T00:38:12.445Z,96708.47
2022-12-23T00:40:59.272Z,96711.25
2022-12-23T00:43:27.441Z,96713.94
2022-12-23T00:45:55.582Z,96700.53
2022-12-23T00:48:37.597Z,96691.63
2022-12-23T00:51:05.972Z,96704.19
2022-12-23T00:53:34.034Z,96697.97
2022-12-23T00:56:03.611Z,96698.94
2022-12-23T00:58:32.155Z,96695.28
2022-12-23T01:01:29.246Z,96704.31
2022-12-23T01:04:14.951Z,96703.44
2022-12-23T01:06:43.055Z,96708.81
2022-12-23T01:09:11.132Z,96693.66
2022-12-23T01:11:40.702Z,96697.34
2022-12-23T01:14:09.379Z,96696.47
2022-12-23T01:16:38.286Z,96692.09
2022-12-23T01:19:06.392Z,96691.09
2022-12-23T01:21:34.571Z,96705.50
2022-12-23T01:24:02.728Z,96700.16
2022-12-23T01:26:30.787Z,96698.41
2022-12-23T01:29:00.270Z,96688.66
2022-12-23T01:31:28.550Z,96685.13
2022-12-23T01:33:57.285Z,96690.38
2022-12-23T01:36:25.344Z,96685.13
2022-12-23T01:38:53.371Z,96678.03
2022-12-23T01:41:38.416Z,96686.06
2022-12-23T01:44:39.528Z,96678.16
2022-12-23T01:47:09.085Z,96680.81
2022-12-23T01:49:37.216Z,96682.66
2022-12-23T01:52:06.163Z,96674.72
2022-12-23T01:54:34.331Z,96677.28
2022-12-23T01:57:02.416Z,96676.44
2022-12-23T01:59:48.102Z,96680.09
2022-12-23T02:02:40.693Z,96672.16
2022-12-23T02:05:09.577Z,96665.94
2022-12-23T02:07:54.900Z,96663.13
2022-12-23T02:10:23.544Z,96662.38
2022-12-23T02:12:52.605Z,96660.56
2022-12-23T02:15:49.576Z,96648.97
2022-12-23T02:18:34.069Z,96658.88
2022-12-23T02:21:28.810Z,96657.13
2022-12-23T02:24:20.887Z,96654.56
2022-12-23T02:26:59.699Z,96648.34
2022-12-23T02:29:40.002Z,96652.75
2022-12-23T02:32:12.136Z,96645.66
2022-12-23T02:34:41.973Z,96643.84
2022-12-23T02:37:12.183Z,96637.59
2022-12-23T02:39:42.809Z,96636.75
2022-12-23T02:42:12.566Z,96646.63
2022-12-23T02:44:43.473Z,96647.47
2022-12-23T02:47:14.331Z,96652.09
2022-12-23T02:49:44.092Z,96650.28
2022-12-23T02:52:15.429Z,96642.22
2022-12-23T02:54:45.428Z,96639.53
2022-12-23T02:57:13.528Z,96622.59
2022-12-23T02:59:43.081Z,96610.16
2022-12-23T03:02:12.694Z,96589.66
2022-12-23T03:04:42.392Z,96591.50
2022-12-23T03:07:16.759Z,96578.91
2022-12-23T03:09:51.192Z,96570.13
2022-12-23T03:12:22.756Z,96587.09
2022-12-23T03:14:55.956Z,96611.09
2022-12-23T03:17:36.627Z,96612.97
2022-12-23T03:20:09.245Z,96616.59
2022-12-23T03:22:39.516Z,96625.63
2022-12-23T03:25:10.156Z,96613.06
2022-12-23T03:27:40.331Z,96604.16
2022-12-23T03:30:09.481Z,96595.25
2022-12-23T03:32:40.871Z,96587.22
2022-12-23T03:35:09.873Z,96570.25
2022-12-23T03:37:38.712Z,96577.44
2022-12-23T03:40:10.224Z,96581.09
2022-12-23T03:42:39.493Z,96577.56
2022-12-23T03:45:37.452Z,96578.53
2022-12-23T03:48:01.096Z,96579.50
2022-12-23T03:50:29.266Z,96572.44
2022-12-23T03:52:58.374Z,96548.38
2022-12-23T03:55:27.711Z,96537.66
2022-12-23T03:57:59.749Z,96537.66
2022-12-23T04:00:28.207Z,96529.59
2022-12-23T04:03:00.748Z,96512.78
2022-12-23T04:05:29.306Z,96516.31
2022-12-23T04:07:59.881Z,96518.13
2022-12-23T04:10:27.990Z,96516.44
2022-12-23T04:12:56.105Z,96518.13
2022-12-23T04:15:24.462Z,96520.06
2022-12-23T04:17:52.843Z,96533.50
2022-12-23T04:20:22.630Z,96555.81
2022-12-23T04:22:50.740Z,96559.47
2022-12-23T04:25:18.953Z,96560.31
2022-12-23T04:27:47.000Z,96569.34
2022-12-23T04:30:15.197Z,96551.44
2022-12-23T04:32:43.496Z,96553.25
2022-12-23T04:35:11.785Z,96563.00
2022-12-23T04:37:41.299Z,96559.34
2022-12-23T04:40:10.188Z,96558.50
2022-12-23T04:42:38.584Z,96561.19
2022-12-23T04:45:07.561Z,96566.53
2022-12-23T04:47:35.711Z,96559.47
2022-12-23T04:50:03.906Z,96572.03
2022-12-23T04:52:32.070Z,96567.53
2022-12-23T04:55:01.566Z,96580.94
2022-12-23T04:57:29.646Z,96580.06
2022-12-23T04:59:57.729Z,96577.41
2022-12-23T05:02:25.951Z,96561.31
2022-12-23T05:04:54.117Z,96571.28
2022-12-23T05:07:22.242Z,96565.94
2022-12-23T05:09:50.330Z,96554.34
2022-12-23T05:12:19.811Z,96550.69
2022-12-23T05:14:48.006Z,96552.50
2022-12-23T05:17:16.110Z,96547.03
2022-12-23T05:19:44.209Z,96529.97
2022-12-23T05:22:12.278Z,96529.84
2022-12-23T05:24:40.364Z,96536.19
2022-12-23T05:27:08.466Z,96533.50
2022-12-23T05:29:37.937Z,96517.41
2022-12-23T05:32:06.382Z,96530.81
2022-12-23T05:34:34.545Z,96526.19
2022-12-23T05:37:02.704Z,96523.50
2022-12-23T05:39:30.775Z,96520.81
2022-12-23T05:41:58.933Z,96517.31
2022-12-23T05:44:27.040Z,96519.47
2022-12-23T05:46:56.534Z,96522.53
2022-12-23T05:49:25.463Z,96512.63
2022-12-23T05:51:53.665Z,96516.91
2022-12-23T05:54:21.700Z,96529.34
2022-12-23T05:56:49.832Z,96518.50
2022-12-23T05:59:17.914Z,96513.75
2022-12-23T06:01:46.104Z,96504.63
2022-12-23T06:04:15.662Z,96503.63
2022-12-23T06:06:43.817Z,96512.69
2022-12-23T06:09:12.011Z,96521.34
2022-12-23T06:11:40.167Z,96522.06
2022-12-23T06:14:09.009Z,96521.09
2022-12-23T06:16:37.193Z,96535.38
2022-12-23T06:19:05.307Z,96522.81
2022-12-23T06:21:34.816Z,96518.19
2022-12-23T06:24:02.869Z,96526.13
2022-12-23T06:26:30.998Z,96525.16
2022-12-23T06:28:59.092Z,96542.22
2022-12-23T06:31:27.310Z,96539.53
2022-12-23T06:33:55.414Z,96546.97
2022-12-23T06:36:23.541Z,96553.53
2022-12-23T06:38:53.036Z,96555.59
2022-12-23T06:41:21.264Z,96564.47
2022-12-23T06:43:54.043Z,96562.44
2022-12-23T06:46:22.504Z,96550.50
2022-12-23T06:48:50.643Z,96562.94
2022-12-23T06:51:18.787Z,96562.94
2022-12-23T06:53:46.907Z,96570.03
2022-12-23T06:56:16.450Z,96567.09
2022-12-23T06:58:44.567Z,96567.72
2022-12-23T07:01:12.782Z,96562.34
2022-12-23T07:03:41.052Z,96556.88
2022-12-23T07:06:09.482Z,96559.44
2022-12-23T07:08:37.551Z,96566.50
2022-12-23T07:11:06.148Z,96567.38
2022-12-23T07:13:35.847Z,96565.78
2022-12-23T07:16:06.612Z,96560.53
2022-12-23T07:18:34.776Z,96567.72
2022-12-23T07:21:03.053Z,96564.19
2022-12-23T07:23:31.265Z,96577.50
2022-12-23T07:25:59.319Z,96572.00
2022-12-23T07:28:27.453Z,96573.81
2022-12-23T07:30:56.883Z,96570.06
2022-12-23T07:33:25.030Z,96572.75
2022-12-23T07:35:53.216Z,96576.28
2022-12-23T07:38:21.314Z,96573.59
2022-12-23T07:40:50.016Z,96566.41
2022-12-23T07:43:18.174Z,96571.53
2022-12-23T07:45:46.260Z,96563.59
2022-12-23T07:48:15.773Z,96572.41
2022-12-23T07:50:43.901Z,96559.94
2022-12-23T07:53:12.072Z,96573.25
2022-12-23T07:55:41.064Z,96566.91
2022-12-23T07:58:09.471Z,96574.00
2022-12-23T08:00:37.623Z,96577.50
2022-12-23T08:03:05.728Z,96562.28
2022-12-23T08:05:35.329Z,96558.50
2022-12-23T08:08:03.401Z,96537.91
2022-12-23T08:10:31.493Z,96556.56
2022-12-23T08:13:01.441Z,96570.72
2022-12-23T08:15:29.583Z,96571.59
2022-12-23T08:17:57.668Z,96581.34
2022-12-23T08:20:25.844Z,96584.88
2022-12-23T08:22:56.349Z,96582.19
2022-12-23T08:25:24.539Z,96578.53
2022-12-23T08:27:52.692Z,96590.00
2022-12-23T08:30:21.200Z,96586.47
2022-12-23T08:32:49.269Z,96581.00
2022-12-23T08:35:17.513Z,96582.69
2022-12-23T08:37:45.573Z,96591.59
2022-12-23T08:40:15.164Z,96591.47
2022-12-23T08:42:43.279Z,96584.41
2022-12-23T08:45:12.024Z,96581.72
2022-12-23T08:47:40.107Z,96596.84
2022-12-23T08:50:09.064Z,96588.78
2022-12-23T08:52:37.210Z,96573.53
2022-12-23T08:55:05.571Z,96574.41
2022-12-23T08:57:35.193Z,96581.47
2022-12-23T09:00:03.679Z,96567.31
2022-12-23T09:02:32.025Z,96550.13
2022-12-23T09:05:00.246Z,96567.97
2022-12-23T09:07:28.367Z,96572.47
2022-12-23T09:09:56.465Z,96575.03
2022-12-23T09:12:24.526Z,96553.53
2022-12-23T09:14:54.124Z,96558.03
2022-12-23T09:17:22.159Z,96558.78
2022-12-23T09:19:52.989Z,96542.69
2022-12-23T09:22:21.410Z,96548.91
2022-12-23T09:24:49.497Z,96541.72
2022-12-23T09:27:17.604Z,96550.63
2022-12-23T09:29:45.667Z,96541.72
2022-12-23T09:32:15.149Z,96530.13
2022-12-23T09:34:43.198Z,96532.66
2022-12-23T09:37:12.933Z,96529.97
2022-12-23T09:39:41.044Z,96530.84
2022-12-23T09:42:14.927Z,96530.84
2022-12-23T09:44:49.935Z,96520.09
2022-12-23T09:47:20.556Z,96504.88
2022-12-23T09:49:51.006Z,96500.34
2022-12-23T09:52:22.984Z,96511.09
2022-12-23T09:54:52.951Z,96510.97
2022-12-23T09:57:23.225Z,96520.72
2022-12-23T10:00:05.001Z,96506.47
2022-12-23T10:02:40.525Z,96517.19
2022-12-23T10:05:16.280Z,96518.91
2022-12-23T10:07:45.390Z,96526.09
2022-12-23T10:10:15.973Z,96525.13
2022-12-23T10:12:45.111Z,96526.94
2022-12-23T10:15:21.110Z,96529.50
2022-12-23T10:17:51.506Z,96514.38
2022-12-23T10:20:22.323Z,96523.41
2022-12-23T10:22:50.517Z,96521.44
2022-12-23T10:25:21.452Z,96540.25
2022-12-23T10:27:49.540Z,96520.63
2022-12-23T10:33:10.254Z,96528.56
2022-12-23T10:35:45.776Z,96531.22
2022-12-23T10:38:23.329Z,96525.00
2022-12-23T10:40:54.268Z,96516.94
2022-12-23T10:43:24.461Z,96508.75
2022-12-23T10:45:54.056Z,96513.31
2022-12-23T10:48:31.279Z,96509.63
2022-12-23T10:51:02.611Z,96495.34
2022-12-23T10:53:37.024Z,96492.66
2022-12-23T10:56:05.565Z,96495.25
2022-12-23T10:58:33.639Z,96494.38
2022-12-23T11:01:11.456Z,96496.19
2022-12-23T11:03:47.296Z,96497.91
2022-12-23T11:06:16.336Z,96501.44
2022-12-23T11:08:44.424Z,96493.38
2022-12-23T11:11:12.616Z,96494.28
2022-12-23T11:13:41.590Z,96494.28
2022-12-23T11:16:14.706Z,96491.59
2022-12-23T11:18:58.816Z,96485.25
2022-12-23T11:21:27.356Z,96495.13
2022-12-23T11:24:17.956Z,96493.38
2022-12-23T11:26:46.475Z,96493.38
2022-12-23T11:29:16.714Z,96488.00
2022-12-23T11:31:44.908Z,96490.63
2022-12-23T11:34:18.520Z,96483.41
2022-12-23T11:36:56.586Z,96477.22
2022-12-23T11:39:28.735Z,96478.91
2022-12-23T11:42:03.219Z,96485.13
2022-12-23T11:44:32.004Z,96484.28
2022-12-23T11:47:00.140Z,96496.84
2022-12-23T11:49:31.520Z,96498.69
2022-12-23T11:52:03.566Z,96483.41
2022-12-23T11:54:33.460Z,96488.78
2022-12-23T11:57:02.953Z,96492.47
2022-12-23T11:59:33.952Z,96482.56
2022-12-23T12:02:03.737Z,96483.41
2022-12-23T12:04:35.806Z,96481.59
2022-12-23T12:07:04.703Z,96484.28
2022-12-23T12:09:32.927Z,96475.34
2022-12-23T12:12:05.332Z,96478.03
2022-12-23T12:14:35.003Z,96472.66
2022-12-23T12:17:05.033Z,96462.78
2022-12-23T12:19:35.810Z,96462.78
2022-12-23T12:22:05.897Z,96450.34
2022-12-23T12:24:36.622Z,96448.50
2022-12-23T12:27:06.846Z,96456.56
2022-12-23T12:29:38.751Z,96453.78
2022-12-23T12:32:08.719Z,96451.19
2022-12-23T12:34:43.720Z,96452.03
2022-12-23T12:37:17.472Z,96452.91
2022-12-23T12:39:50.014Z,96460.97
2022-12-23T12:42:20.942Z,96465.47
2022-12-23T12:44:58.712Z,96455.59
2022-12-23T12:47:52.556Z,96456.69
2022-12-23T12:50:20.777Z,96454.00
2022-12-23T12:52:48.929Z,96452.28
2022-12-23T12:55:20.823Z,96457.63
2022-12-23T12:57:48.915Z,96450.53
2022-12-23T13:00:18.132Z,96442.50
2022-12-23T13:03:15.299Z,96451.31
2022-12-23T13:05:54.139Z,96441.63
2022-12-23T13:08:30.140Z,96450.53
2022-12-23T13:10:59.897Z,96456.78
2022-12-23T13:13:33.905Z,96449.59
2022-12-23T13:16:04.392Z,96449.59
2022-12-23T13:18:37.698Z,96447.72
2022-12-23T13:21:09.448Z,96456.78
2022-12-23T13:23:44.124Z,96461.09
2022-12-23T13:26:17.143Z,96456.56
2022-12-23T13:28:47.233Z,96460.97
2022-12-23T13:31:16.900Z,96454.50
2022-12-23T13:33:47.476Z,96449.84
2022-12-23T13:36:32.987Z,96455.09
2022-12-23T13:39:08.222Z,96443.38
2022-12-23T13:41:39.336Z,96446.06
2022-12-23T13:44:09.635Z,96449.59
2022-12-23T13:46:43.776Z,96459.38
2022-12-23T13:49:15.969Z,96446.91
2022-12-23T13:51:50.107Z,96448.63
2022-12-23T13:54:22.980Z,96451.31
2022-12-23T13:56:54.119Z,96444.22
2022-12-23T13:59:22.193Z,96444.00
2022-12-23T14:01:52.670Z,96451.06
2022-12-23T14:04:35.139Z,96450.94
2022-12-23T14:07:06.596Z,96466.09
2022-12-23T14:09:36.544Z,96453.50
2022-12-23T14:12:13.723Z,96468.63
2022-12-23T14:14:44.737Z,96468.63
2022-12-23T14:17:16.372Z,96463.28
2022-12-23T14:19:52.678Z,96474.16
2022-12-23T14:22:34.490Z,96473.28
2022-12-23T14:25:20.888Z,96477.78
2022-12-23T14:27:53.063Z,96481.47
2022-12-23T14:30:23.596Z,96470.72
2022-12-23T14:32:53.112Z,96468.16
2022-12-23T14:35:28.636Z,96469.00
2022-12-23T14:38:24.437Z,96472.56
2022-12-23T14:40:55.372Z,96486.09
2022-12-23T14:43:28.739Z,96486.25
2022-12-23T14:45:57.068Z,96479.16
2022-12-23T14:49:38.242Z,96469.50
2022-12-23T14:52:44.328Z,96464.38
2022-12-23T14:55:42.723Z,96457.28
2022-12-23T14:58:26.864Z,96458.28
2022-12-23T15:01:00.972Z,96464.59
2022-12-23T15:03:29.332Z,96463.78
2022-12-23T15:05:57.500Z,96460.22
2022-12-23T15:08:30.679Z,96466.47
2022-12-23T15:11:00.205Z,96472.78
2022-12-23T15:13:28.815Z,96467.53
2022-12-23T15:16:01.345Z,96471.06
2022-12-23T15:18:29.961Z,96463.84
2022-12-23T15:21:02.210Z,96473.84
2022-12-23T15:23:30.495Z,96475.56
2022-12-23T15:26:00.422Z,96475.56
2022-12-23T15:28:35.255Z,96474.72
2022-12-23T15:31:03.386Z,96476.53
2022-12-23T15:34:02.153Z,96476.53
2022-12-23T15:36:27.909Z,96490.97
2022-12-23T15:38:56.142Z,96491.81
2022-12-23T15:41:25.689Z,96495.34
2022-12-23T15:43:53.823Z,96499.75
2022-12-23T15:46:29.020Z,96499.75
2022-12-23T15:48:58.129Z,96499.00
2022-12-23T15:51:58.193Z,96496.31
2022-12-23T15:54:22.313Z,96504.13
2022-12-23T15:56:53.752Z,96505.03
2022-12-23T15:59:26.262Z,96507.81
2022-12-23T16:01:54.896Z,96497.06
2022-12-23T16:04:25.848Z,96497.28
2022-12-23T16:06:54.303Z,96508.16
2022-12-23T16:09:31.411Z,96501.81
2022-12-23T16:12:01.847Z,96497.28
2022-12-23T16:14:35.372Z,96506.06
2022-12-23T16:17:13.731Z,96509.63
2022-12-23T16:19:42.922Z,96504.13
2022-12-23T16:22:28.060Z,96509.50
2022-12-23T16:25:02.693Z,96500.50
2022-12-23T16:27:37.337Z,96499.53
2022-12-23T16:30:10.704Z,96497.56
2022-12-23T16:32:48.419Z,96495.63
2022-12-23T16:35:31.352Z,96488.41
2022-12-23T16:38:11.793Z,96495.38
2022-12-23T16:40:39.957Z,96501.72
2022-12-23T16:43:09.595Z,96507.09
2022-12-23T16:45:38.009Z,96500.03
2022-12-23T16:48:10.585Z,96504.53
2022-12-23T16:50:38.781Z,96510.03
2022-12-23T16:53:06.871Z,96510.91
2022-12-23T16:55:35.019Z,96516.28
2022-12-23T16:58:03.036Z,96518.97
2022-12-23T17:00:32.545Z,96508.09
2022-12-23T17:03:00.687Z,96509.78
2022-12-23T17:05:28.937Z,96506.13
2022-12-23T17:07:56.995Z,96511.63
2022-12-23T17:10:25.155Z,96519.69
2022-12-23T17:12:53.241Z,96512.47
2022-12-23T17:15:22.823Z,96510.78
2022-12-23T17:17:53.433Z,96503.44
2022-12-23T17:20:22.200Z,96506.88
2022-12-23T17:22:51.133Z,96489.03
2022-12-23T17:25:26.285Z,96507.81
2022-12-23T17:27:55.696Z,96512.38
2022-12-23T17:30:25.109Z,96503.44
2022-12-23T17:32:57.089Z,96498.06
2022-12-23T17:35:25.273Z,96515.16
2022-12-23T17:37:53.535Z,96519.69
2022-12-23T17:40:21.661Z,96519.69
2022-12-23T17:42:49.860Z,96516.13
2022-12-23T17:45:27.832Z,96519.78
2022-12-23T17:47:57.427Z,96525.16
2022-12-23T17:50:25.726Z,96527.00
2022-12-23T17:52:53.864Z,96527.97
2022-12-23T17:55:22.701Z,96523.47
2022-12-23T17:57:51.945Z,96522.59
2022-12-23T18:00:29.871Z,96523.47
2022-12-23T18:03:03.215Z,96520.78
2022-12-23T18:05:32.382Z,96520.91
2022-12-23T18:08:01.492Z,96514.66
2022-12-23T18:10:31.064Z,96514.66
2022-12-23T18:13:00.360Z,96514.81
2022-12-23T18:15:31.528Z,96513.06
2022-12-23T18:17:59.676Z,96518.44
2022-12-23T18:20:29.183Z,96513.16
2022-12-23T18:23:01.770Z,96521.22
2022-12-23T18:25:30.207Z,96513.31
2022-12-23T18:27:58.398Z,96522.19
2022-12-23T18:30:26.555Z,96524.88
2022-12-23T18:32:54.653Z,96521.34
2022-12-23T18:35:29.443Z,96522.19
2022-12-23T18:37:57.816Z,96530.25
2022-12-23T18:40:32.380Z,96527.47
2022-12-23T18:43:01.084Z,96531.09
2022-12-23T18:45:34.480Z,96530.06
2022-12-23T18:48:02.955Z,96537.25
2022-12-23T18:50:32.678Z,96536.34
2022-12-23T18:53:01.010Z,96531.88
2022-12-23T18:55:30.299Z,96532.75
2022-12-23T18:57:58.804Z,96540.78
2022-12-23T19:00:28.272Z,96535.50
2022-12-23T19:02:57.127Z,96530.25
2022-12-23T19:05:26.752Z,96532.31
2022-12-23T19:07:57.371Z,96536.00
2022-12-23T19:10:26.348Z,96526.09
2022-12-23T19:12:54.554Z,96519.88
2022-12-23T19:15:22.745Z,96521.56
2022-12-23T19:17:51.414Z,96521.56
2022-12-23T19:20:19.910Z,96519.88
2022-12-23T19:22:48.088Z,96515.25
2022-12-23T19:25:18.694Z,96521.56
2022-12-23T19:27:47.096Z,96517.06
2022-12-23T19:30:16.470Z,96510.84
2022-12-23T19:32:44.674Z,96511.69
2022-12-23T19:35:13.500Z,96503.66
2022-12-23T19:37:41.650Z,96513.41
2022-12-23T19:40:10.808Z,96504.38
2022-12-23T19:42:40.621Z,96498.03
2022-12-23T19:45:10.046Z,96495.25
2022-12-23T19:47:38.209Z,96488.91
2022-12-23T19:50:07.369Z,96490.63
2022-12-23T19:52:35.630Z,96485.25
2022-12-23T19:55:03.711Z,96492.31
2022-12-23T19:57:32.034Z,96477.94
2022-12-23T20:00:02.718Z,96469.03
2022-12-23T20:02:40.133Z,96466.34
2022-12-23T20:05:09.661Z,96457.53
2022-12-23T20:07:37.841Z,96464.59
2022-12-23T20:10:06.908Z,96461.09
2022-12-23T20:12:35.023Z,96457.41
2022-12-23T20:15:04.858Z,96461.91
2022-12-23T20:17:33.003Z,96479.75
2022-12-23T20:20:01.232Z,96484.13
2022-12-23T20:22:29.362Z,96491.25
2022-12-23T20:24:58.652Z,96493.78
2022-12-23T20:27:28.282Z,96497.34
2022-12-23T20:29:56.581Z,96489.41
2022-12-23T20:32:26.023Z,96483.06
2022-12-23T20:34:54.167Z,96467.78
2022-12-23T20:37:22.233Z,96465.13
2022-12-23T20:39:50.640Z,96473.16
2022-12-23T20:42:18.804Z,96468.66
2022-12-23T20:44:47.081Z,96465.97
2022-12-23T20:47:15.603Z,96475.84
2022-12-23T20:49:45.049Z,96486.59
2022-12-23T20:52:13.212Z,96487.47
2022-12-23T20:54:41.321Z,96495.63
2022-12-23T20:57:09.471Z,96490.25
2022-12-23T20:59:37.684Z,96503.66
2022-12-23T21:02:06.307Z,96500.03
2022-12-23T21:04:34.519Z,96500.03
2022-12-23T21:07:04.001Z,96491.97
2022-12-23T21:09:32.212Z,96483.91
2022-12-23T21:12:00.423Z,96478.53
2022-12-23T21:14:28.744Z,96471.34
2022-12-23T21:16:56.854Z,96463.28
2022-12-23T21:19:25.923Z,96461.69
2022-12-23T21:21:54.148Z,96450.81
2022-12-23T21:24:24.057Z,96448.28
2022-12-23T21:26:56.500Z,96452.78
2022-12-23T21:29:25.418Z,96451.09
2022-12-23T21:31:53.737Z,96435.94
2022-12-23T21:34:21.977Z,96427.88
2022-12-23T21:36:50.112Z,96421.66
2022-12-23T21:39:18.315Z,96422.63
2022-12-23T21:41:51.015Z,96430.69
2022-12-23T21:44:19.136Z,96430.78
2022-12-23T21:46:47.307Z,96429.06
2022-12-23T21:49:15.493Z,96448.72
2022-12-23T21:51:43.553Z,96458.59
2022-12-23T21:54:12.015Z,96441.75
2022-12-23T21:56:40.165Z,96449.94
2022-12-23T21:59:11.739Z,96443.56
2022-12-23T22:01:39.927Z,96440.16
2022-12-23T22:04:08.054Z,96460.69
2022-12-23T22:06:37.317Z,96461.66
2022-12-23T22:09:05.576Z,96468.88
2022-12-23T22:11:35.117Z,96469.69
2022-12-23T22:14:03.766Z,96476.06
2022-12-23T22:16:33.307Z,96489.50
2022-12-23T22:19:01.921Z,96483.38
2022-12-23T22:21:30.985Z,96487.88
2022-12-23T22:23:59.192Z,96469.09
2022-12-23T22:26:28.082Z,96466.53
2022-12-23T22:28:56.365Z,96454.06
2022-12-23T22:31:28.104Z,96454.06
2022-12-23T22:33:57.677Z,96456.88
2022-12-23T22:36:25.836Z,96464.09
2022-12-23T22:38:54.451Z,96451.66
2022-12-23T22:41:22.627Z,96460.66
2022-12-23T22:43:50.762Z,96448.09
2022-12-23T22:46:19.089Z,96457.16
2022-12-23T22:48:47.663Z,96464.34
2022-12-23T22:51:19.152Z,96467.97
2022-12-23T22:53:47.432Z,96464.34
2022-12-23T22:56:16.417Z,96458.22
2022-12-23T22:58:44.532Z,96444.69
2022-12-23T23:01:20.095Z,96442.13
2022-12-23T23:03:50.829Z,96458.22
2022-12-23T23:06:20.393Z,96432.47
2022-12-23T23:08:48.569Z,96433.69
2022-12-23T23:11:17.200Z,96434.19
2022-12-23T23:13:45.331Z,96425.66
2022-12-23T23:16:13.442Z,96435.75
2022-12-23T23:18:41.670Z,96443.19
2022-12-23T23:21:10.555Z,96442.47
2022-12-23T23:23:40.046Z,96432.81
2022-12-23T23:26:08.755Z,96426.63
2022-12-23T23:28:36.844Z,96420.38
2022-12-23T23:31:39.770Z,96404.28
2022-12-23T23:33:53.144Z,96425.75
2022-12-23T23:36:21.275Z,96428.44
2022-12-23T23:38:50.753Z,96426.47
2022-12-23T23:41:22.805Z,96430.88
2022-12-23T23:43:52.150Z,96437.09
2022-12-23T23:46:20.332Z,96438.81
2022-12-23T23:48:48.589Z,96445.00
2022-12-23T23:51:16.667Z,96430.88
2022-12-23T23:53:44.881Z,96437.97
2022-12-23T23:56:14.403Z,96428.91
2022-12-23T23:58:42.568Z,96436.97
